Possum Trot, Mississippi
Current Conditions -  °F | °C
As of 4:53 AM on Thursday 27 Nov 2014 (Local Time) from KTUP Reporting Station
Clear Clear  
Wind Chill: 32°   Ceiling: Unl
Heat Index: 37°   Visibility: 10mi
Dew Point: 28°   Wind: 6mph
Humidity: 70%   Direction: 340°NNW
Pressure: 30.31"   Gusts: NA
Location:  34.1762°N, 88.9612°W
Report Text: KTUP 271053Z AUTO 34005KT 10SM CLR 03/M02 A3031 RMK AO2 SLP265 T00281022 $
Loading
Personal Weather Stations






























Interactive Weather Map New forecast layout! Learn more

10-Day Weather Forecast

Advertisements
Track Severe Weather on mobile